Time;durP1;ratioP1;P1;durP2;ratioP2;P2;SDS_P1;SDS_P2;PMS_P1;PMS_P2;Temp;Humidity;BMP_temperature;BMP_pressure;BME280_temperature;BME280_humidity;BME280_pressure;Samples;Min_cycle;Max_cycle;Signal;HPM_P1;HPM_P2
2022/09/29 00:04:34;;;;;;;5.80;1.80;;;;;;;18.48;62.61;95123.81;10507004;28;20040;-30
2022/09/29 00:09:34;;;;;;;3.23;1.50;;;;;;;18.48;62.76;95121.25;10513538;28;20055;-30
2022/09/29 00:14:34;;;;;;;3.60;1.63;;;;;;;18.46;62.73;95126.41;10504618;28;20668;-30
2022/09/29 00:19:35;;;;;;;2.60;2.13;;;;;;;18.45;62.91;95123.88;10512855;28;20297;-31
2022/09/29 00:24:35;;;;;;;3.87;1.70;;;;;;;18.45;62.68;95123.88;10500457;28;20028;-30
2022/09/29 00:29:36;;;;;;;2.60;1.57;;;;;;;18.43;62.92;95126.44;10506015;28;20654;-30
2022/09/29 00:34:36;;;;;;;3.53;1.50;;;;;;;18.45;62.79;95136.56;10513251;28;20034;-32
2022/09/29 00:39:36;;;;;;;3.83;1.37;;;;;;;18.43;62.79;95130.69;10506830;28;20289;-31
2022/09/29 00:44:55;;;;;;;2.47;1.30;;;;;;;18.56;62.33;95132.03;10502496;28;20287;-30
2022/09/29 00:50:12;;;;;;;3.28;1.27;;;;;;;18.59;62.66;95124.38;10508292;28;20177;-30
2022/09/29 00:55:22;;;;;;;2.43;1.80;;;;;;;18.53;62.47;95122.84;10505920;28;20044;-30
2022/09/29 01:00:22;;;;;;;2.85;1.50;;;;;;;18.49;62.61;95116.16;10506568;28;20293;-31
2022/09/29 01:05:28;;;;;;;1.87;1.20;;;;;;;18.45;62.73;95108.69;10499526;28;20409;-30
2022/09/29 01:10:29;;;;;;;3.83;1.38;;;;;;;18.47;62.76;95112.84;10501414;28;20263;-30
2022/09/29 01:15:30;;;;;;;2.75;1.38;;;;;;;18.47;62.72;95112.84;10500239;28;20040;-30
2022/09/29 01:20:34;;;;;;;2.65;1.63;;;;;;;18.45;63.17;95108.69;10502992;28;20039;-31
2022/09/29 01:25:53;;;;;;;3.33;1.60;;;;;;;18.44;62.82;95107.88;10503429;28;20043;-31
2022/09/29 01:31:03;;;;;;;1.73;1.50;;;;;;;18.46;63.05;95110.34;10504633;28;20449;-31
2022/09/29 01:36:09;;;;;;;1.75;1.23;;;;;;;18.43;62.79;95101.13;10504485;28;20036;-31
2022/09/29 01:41:17;;;;;;;3.20;1.58;;;;;;;18.52;62.80;95089.94;10504475;28;20024;-31
2022/09/29 01:46:23;;;;;;;3.00;1.40;;;;;;;18.58;62.88;95099.91;10503077;28;20038;-31
2022/09/29 01:51:29;;;;;;;3.17;1.30;;;;;;;18.55;62.68;95094.91;10503373;28;20032;-31
2022/09/29 01:56:59;;;;;;;2.25;1.42;;;;;;;18.48;62.71;95088.31;10501948;28;20096;-30
2022/09/29 02:02:05;;;;;;;2.80;1.27;;;;;;;18.48;62.68;95078.19;10499178;28;20554;-31
2022/09/29 02:07:09;;;;;;;;;;;;;;;18.46;62.77;95080.78;10501536;28;20522;-31
2022/09/29 02:12:15;;;;;;;3.95;1.58;;;;;;;18.44;63.10;95081.69;10502053;28;19931;-31
2022/09/29 02:17:19;;;;;;;2.50;1.20;;;;;;;18.43;63.08;95075.78;10499184;28;20081;-31
2022/09/29 02:22:20;;;;;;;2.35;1.38;;;;;;;18.41;62.82;95066.56;10506545;28;20123;-31
2022/09/29 02:27:21;;;;;;;2.63;1.38;;;;;;;18.41;63.13;95061.50;10499844;28;20484;-30
2022/09/29 02:32:22;;;;;;;1.85;1.00;;;;;;;18.40;62.98;95052.25;10501833;28;20037;-31
2022/09/29 02:37:46;;;;;;;1.70;1.13;;;;;;;18.51;62.71;95053.59;10503219;28;20041;-31
2022/09/29 02:43:10;;;;;;;2.58;1.13;;;;;;;18.59;62.46;95055.94;10512043;28;20036;-30
2022/09/29 02:48:10;;;;;;;3.55;1.30;;;;;;;18.53;62.58;95054.41;10512536;28;20028;-31
2022/09/29 02:53:17;;;;;;;1.95;1.20;;;;;;;18.48;62.70;95051.16;10505323;28;20028;-31
2022/09/29 02:58:29;;;;;;;3.13;1.80;;;;;;;18.46;62.58;95064.75;10515161;28;20040;-30
2022/09/29 03:03:30;;;;;;;3.38;1.10;;;;;;;18.45;62.89;95063.06;10508790;28;20047;-31
2022/09/29 03:08:31;;;;;;;1.37;1.20;;;;;;;18.41;62.83;95054.72;10511151;28;20032;-31
2022/09/29 03:13:31;;;;;;;2.20;1.17;;;;;;;18.41;62.78;95057.25;10506637;28;20286;-30
2022/09/29 03:18:31;;;;;;;1.73;1.20;;;;;;;18.41;63.01;95064.03;10510186;28;20035;-30
2022/09/29 03:23:32;;;;;;;2.33;1.20;;;;;;;18.38;63.08;95056.50;10509705;28;20051;-31
2022/09/29 03:28:32;;;;;;;1.67;0.85;;;;;;;18.34;63.21;95052.41;10511214;28;20034;-30
2022/09/29 03:33:33;;;;;;;1.52;1.23;;;;;;;18.50;62.63;95051.13;10509777;28;20059;-30
2022/09/29 03:38:34;;;;;;;2.78;1.17;;;;;;;18.56;62.52;95056.00;10503843;28;20047;-30
2022/09/29 03:43:34;;;;;;;3.78;1.10;;;;;;;18.59;62.27;95061.84;10508756;28;20036;-30
2022/09/29 03:48:35;;;;;;;1.90;0.97;;;;;;;18.50;62.64;95071.41;10509352;28;20084;-30
2022/09/29 03:53:36;;;;;;;2.88;1.17;;;;;;;18.54;62.34;95056.06;10501624;28;20033;-30
2022/09/29 03:58:36;;;;;;;4.25;1.15;;;;;;;18.53;62.34;95056.94;10507557;28;20042;-32
2022/09/29 04:03:36;;;;;;;1.17;0.63;;;;;;;18.53;62.34;95056.09;10506575;28;20029;-31
2022/09/29 04:08:37;;;;;;;2.50;1.20;;;;;;;18.55;62.08;95064.50;10505052;28;20060;-31
2022/09/29 04:13:37;;;;;;;3.25;1.15;;;;;;;18.58;62.05;95069.50;10505810;28;20532;-30
2022/09/29 04:18:38;;;;;;;1.43;0.80;;;;;;;18.60;62.28;95085.50;10509336;28;20507;-30
2022/09/29 04:23:38;;;;;;;1.40;1.00;;;;;;;18.60;62.17;95088.03;10508871;28;20037;-30
2022/09/29 04:28:39;;;;;;;1.50;1.27;;;;;;;18.63;62.23;95075.25;10503508;28;20190;-31
2022/09/29 04:33:40;;;;;;;1.40;1.10;;;;;;;18.68;61.89;95078.50;10491187;28;20184;-30
2022/09/29 04:38:40;;;;;;;2.15;1.17;;;;;;;18.70;61.87;95079.28;10506613;28;20051;-31
2022/09/29 04:43:41;;;;;;;4.67;1.30;;;;;;;18.63;61.84;95090.47;10522353;28;20043;-31
2022/09/29 04:48:41;;;;;;;5.63;1.00;;;;;;;18.50;60.75;95091.69;10514085;28;20047;-31
2022/09/29 04:53:41;;;;;;;1.83;0.90;;;;;;;18.48;60.06;95088.31;10502794;28;20070;-31
2022/09/29 04:58:42;;;;;;;3.53;1.60;;;;;;;18.44;60.62;95091.81;10511151;28;20037;-30
2022/09/29 05:03:42;;;;;;;4.53;0.87;;;;;;;18.52;60.72;95107.66;10505594;28;20037;-31
2022/09/29 05:08:43;;;;;;;6.90;1.27;;;;;;;18.55;61.12;95108.41;10507740;28;20035;-31
2022/09/29 05:13:43;;;;;;;3.08;1.50;;;;;;;18.61;61.32;95107.44;10501884;28;20279;-30
2022/09/29 05:18:43;;;;;;;3.73;1.10;;;;;;;18.59;61.43;95099.84;10503596;28;20028;-31
2022/09/29 05:23:44;;;;;;;8.13;2.08;;;;;;;18.51;61.66;95098.41;10503039;28;20040;-30
2022/09/29 05:28:46;;;;;;;4.55;1.20;;;;;;;18.54;60.43;95093.25;10501421;28;20119;-30
2022/09/29 05:33:47;;;;;;;1.77;1.27;;;;;;;18.47;60.35;95096.81;10501300;28;20089;-30
2022/09/29 05:38:47;;;;;;;2.93;1.20;;;;;;;18.58;60.79;95115.13;10503273;28;20462;-30
2022/09/29 05:43:49;;;;;;;2.08;1.13;;;;;;;18.54;61.16;95113.50;10498611;28;20115;-31
2022/09/29 05:48:50;;;;;;;2.42;0.93;;;;;;;18.54;61.20;95118.59;10502509;28;20518;-32
2022/09/29 05:53:51;;;;;;;3.53;1.20;;;;;;;18.50;61.38;95119.53;10498849;28;20111;-31
2022/09/29 05:58:52;;;;;;;1.35;0.98;;;;;;;18.50;61.68;95122.91;10500936;28;20024;-32
2022/09/29 06:03:54;;;;;;;6.20;1.35;;;;;;;18.49;61.57;95122.97;10501527;28;20032;-31
2022/09/29 06:08:57;;;;;;;6.07;1.15;;;;;;;18.51;61.64;95126.28;10507783;28;20032;-31
2022/09/29 06:13:58;;;;;;;3.17;1.08;;;;;;;18.49;61.80;95133.09;10498638;28;20048;-31
2022/09/29 06:19:00;;;;;;;2.60;1.00;;;;;;;18.47;61.93;95132.28;10500587;28;20105;-31
2022/09/29 06:24:01;;;;;;;2.70;0.80;;;;;;;18.55;61.89;95140.53;10507828;28;20036;-30
2022/09/29 06:29:02;;;;;;;3.05;0.90;;;;;;;18.54;61.69;95128.72;10508549;28;20036;-31
2022/09/29 06:34:04;;;;;;;2.10;0.85;;;;;;;18.56;61.53;95137.09;10506057;28;20125;-30
2022/09/29 06:39:06;;;;;;;2.60;1.20;;;;;;;18.49;61.73;95130.56;10502823;28;20039;-31
2022/09/29 06:44:07;;;;;;;1.75;0.82;;;;;;;18.45;61.91;95132.34;10506409;28;20039;-31
2022/09/29 06:49:07;;;;;;;1.92;1.20;;;;;;;18.47;61.81;95122.13;10505514;28;20032;-30
2022/09/29 06:54:07;;;;;;;2.27;1.03;;;;;;;18.46;61.78;95110.34;10500731;28;20131;-31
2022/09/29 06:59:08;;;;;;;1.93;1.23;;;;;;;18.43;61.87;95108.72;10504526;28;20296;-31
2022/09/29 07:04:08;;;;;;;2.17;0.90;;;;;;;18.44;61.95;95112.94;10503407;28;20036;-31
2022/09/29 07:09:14;;;;;;;1.57;0.77;;;;;;;18.44;61.92;95112.94;10505058;28;20089;-31
2022/09/29 07:14:16;;;;;;;1.60;0.82;;;;;;;18.43;62.00;95121.38;10498196;28;20837;-30
2022/09/29 07:19:18;;;;;;;1.70;0.70;;;;;;;18.48;61.76;95116.19;10493719;28;20041;-30
2022/09/29 07:24:19;;;;;;;2.38;0.90;;;;;;;18.56;61.82;95119.38;10503016;28;20416;-30
2022/09/29 07:29:19;;;;;;;1.70;1.10;;;;;;;18.56;61.73;95126.97;10510711;28;20033;-31
2022/09/29 07:34:20;;;;;;;1.60;0.90;;;;;;;18.44;61.79;95128.16;10509374;28;20826;-30
2022/09/29 07:39:21;;;;;;;1.92;0.70;;;;;;;18.46;61.98;95134.00;10506368;28;20384;-30
2022/09/29 07:44:21;;;;;;;1.45;0.65;;;;;;;18.31;61.82;95115.78;10510311;28;20040;-31
2022/09/29 07:49:22;;;;;;;2.90;0.87;;;;;;;18.43;61.92;95150.97;10504822;28;20062;-31
2022/09/29 07:54:23;;;;;;;2.08;1.02;;;;;;;18.46;62.00;95161.03;10507831;28;20281;-30
2022/09/29 07:59:23;;;;;;;1.60;1.10;;;;;;;18.45;61.98;95179.63;10508211;28;20696;-30
2022/09/29 08:04:23;;;;;;;1.60;1.23;;;;;;;18.44;61.95;95176.28;10507987;28;20055;-31
2022/09/29 08:09:24;;;;;;;1.13;0.80;;;;;;;18.44;61.99;95167.84;10507917;28;20378;-30
2022/09/29 08:14:24;;;;;;;1.37;0.73;;;;;;;18.41;61.99;95171.28;10502760;28;20031;-31
2022/09/29 08:19:26;;;;;;;1.57;0.70;;;;;;;18.50;61.91;95178.66;10510515;28;20055;-30
2022/09/29 08:24:27;;;;;;;1.35;0.75;;;;;;;18.53;62.04;95183.66;10508632;28;20431;-31
2022/09/29 08:29:27;;;;;;;1.00;0.70;;;;;;;18.52;61.68;95183.69;10503890;28;20389;-30
2022/09/29 08:34:27;;;;;;;0.60;0.50;;;;;;;18.48;61.73;95198.13;10509193;28;20028;-31
2022/09/29 08:39:28;;;;;;;0.93;0.60;;;;;;;18.48;61.65;95209.94;10504347;28;20127;-30
2022/09/29 08:44:37;;;;;;;0.63;0.60;;;;;;;18.47;61.88;95210.81;10507596;28;20040;-31
2022/09/29 08:49:42;;;;;;;1.13;0.77;;;;;;;18.45;61.82;95225.25;10506083;28;20043;-31
2022/09/29 08:54:45;;;;;;;1.73;0.60;;;;;;;18.44;61.78;95224.44;10506813;28;20519;-31
2022/09/29 08:59:52;;;;;;;2.20;1.23;;;;;;;18.44;61.71;95216.81;10502676;28;20058;-33
2022/09/29 09:05:23;;;;;;;0.98;0.60;;;;;;;18.45;61.72;95217.63;10502053;28;20032;-31
2022/09/29 09:10:43;;;;;;;1.17;0.90;;;;;;;18.44;62.02;95223.59;10503548;28;20029;-31
2022/09/29 09:15:49;;;;;;;1.60;0.88;;;;;;;18.46;61.59;95221.84;10505906;28;20632;-31
2022/09/29 09:21:05;;;;;;;0.70;0.60;;;;;;;18.52;61.61;95219.16;10506712;28;20036;-32
2022/09/29 09:26:08;;;;;;;1.45;0.68;;;;;;;18.50;61.59;95211.59;10501234;28;20052;-31
2022/09/29 09:31:18;;;;;;;1.05;0.60;;;;;;;18.43;61.66;95202.47;10510062;28;20596;-30
2022/09/29 09:36:45;;;;;;;0.63;0.45;;;;;;;18.47;61.62;95213.38;10501232;28;20115;-30
2022/09/29 09:41:49;;;;;;;0.63;0.63;;;;;;;18.43;61.70;95212.59;10501549;28;20048;-31
2022/09/29 09:47:07;;;;;;;1.23;0.60;;;;;;;18.43;61.56;95217.66;10502612;28;20040;-30
2022/09/29 09:52:21;;;;;;;0.50;0.47;;;;;;;18.44;61.68;95218.50;10508451;28;20094;-30
2022/09/29 09:57:59;;;;;;;1.48;0.63;;;;;;;18.44;61.64;95216.81;10510645;28;20040;-30
2022/09/29 10:03:06;;;;;;;0.93;0.57;;;;;;;18.42;61.58;95220.25;10504350;28;20061;-31
2022/09/29 10:08:10;;;;;;;;;;;;;;;18.37;61.66;95222.06;10509866;28;20040;-31
2022/09/29 10:13:13;;;;;;;0.93;0.75;;;;;;;18.45;61.47;95220.19;10503149;28;19966;-30
2022/09/29 10:18:22;;;;;;;0.50;0.50;;;;;;;18.51;61.44;95220.03;10497083;28;20056;-31
2022/09/29 10:23:24;;;;;;;2.05;0.70;;;;;;;18.52;61.60;95216.63;10505310;28;20048;-30
2022/09/29 10:28:28;;;;;;;2.10;0.70;;;;;;;18.46;60.98;95211.69;10500361;28;20112;-30
2022/09/29 10:33:28;;;;;;;1.33;0.70;;;;;;;18.46;61.32;95206.63;10500965;28;20044;-31
2022/09/29 10:38:30;;;;;;;1.23;0.70;;;;;;;18.47;61.24;95221.81;10501511;28;20040;-30
2022/09/29 10:43:33;;;;;;;1.88;1.00;;;;;;;18.49;61.27;95212.47;10500269;28;20089;-30
2022/09/29 10:48:33;;;;;;;3.00;1.10;;;;;;;18.45;61.39;95217.63;10499978;28;20127;-30
2022/09/29 10:53:37;;;;;;;4.70;2.13;;;;;;;18.43;61.65;95217.66;10494947;28;20484;-31
2022/09/29 10:58:41;;;;;;;5.97;3.22;;;;;;;18.42;61.74;95227.88;10501361;28;20085;-31
2022/09/29 11:03:53;;;;;;;4.53;2.60;;;;;;;18.41;61.72;95228.72;10504979;28;20764;-30
2022/09/29 11:08:54;;;;;;;3.75;2.97;;;;;;;18.41;61.74;95229.53;10505394;28;20059;-31
2022/09/29 11:13:56;;;;;;;4.03;3.28;;;;;;;18.46;61.68;95226.91;10505407;28;20532;-31
2022/09/29 11:19:10;;;;;;;7.60;5.10;;;;;;;18.51;61.73;95223.38;10508540;28;20035;-30
2022/09/29 11:24:19;;;;;;;8.23;6.65;;;;;;;18.53;61.32;95223.38;10512612;28;20040;-32
2022/09/29 11:29:34;;;;;;;10.52;5.68;;;;;;;18.53;61.31;95220.81;10505191;28;20040;-31
2022/09/29 11:34:45;;;;;;;17.30;8.70;;;;;;;18.50;61.64;95225.97;10512789;28;20388;-32
2022/09/29 11:40:03;;;;;;;17.15;7.65;;;;;;;18.39;60.58;95238.03;10506777;28;20487;-31
2022/09/29 11:45:09;;;;;;;18.15;9.75;;;;;;;18.39;61.60;95243.13;10508727;28;20468;-34
2022/09/29 11:50:46;;;;;;;17.77;8.40;;;;;;;18.38;61.77;95233.84;10508153;28;20063;-30
2022/09/29 11:56:02;;;;;;;15.00;9.00;;;;;;;18.37;62.03;95238.09;10509444;28;20094;-31
2022/09/29 12:01:26;;;;;;;14.73;9.98;;;;;;;18.25;61.89;95219.78;10512028;28;20495;-31
2022/09/29 12:06:46;;;;;;;14.10;9.68;;;;;;;18.38;62.00;95249.91;10518371;28;20036;-31
2022/09/29 12:11:55;;;;;;;17.55;10.30;;;;;;;18.41;62.04;95259.13;10513152;28;20028;-30
2022/09/29 12:17:01;;;;;;;17.42;10.95;;;;;;;18.49;62.02;95252.19;10502920;28;20447;-31
2022/09/29 12:22:03;;;;;;;18.90;9.25;;;;;;;18.43;60.86;95257.41;10510530;28;20032;-31
2022/09/29 12:27:15;;;;;;;15.02;9.52;;;;;;;18.46;61.45;95253.09;10505316;28;20025;-29
2022/09/29 12:32:31;;;;;;;23.05;9.73;;;;;;;18.47;61.54;95253.91;10507465;28;20110;-30
2022/09/29 12:37:40;;;;;;;13.40;10.00;;;;;;;18.40;61.80;95247.34;10506197;28;20036;-31
2022/09/29 12:42:49;;;;;;;12.57;8.60;;;;;;;18.40;62.03;95242.28;10513161;28;20028;-31
2022/09/29 12:48:12;;;;;;;15.27;9.55;;;;;;;18.41;61.76;95243.94;10506931;28;20044;-31
2022/09/29 12:53:33;;;;;;;18.70;9.70;;;;;;;18.41;61.91;95244.75;10512342;28;20114;-30
2022/09/29 12:58:37;;;;;;;16.90;10.95;;;;;;;18.45;61.72;95246.38;10501590;28;20037;-30
2022/09/29 13:03:57;;;;;;;15.48;11.52;;;;;;;18.41;61.87;95249.00;10507791;28;20068;-30
2022/09/29 13:09:07;;;;;;;16.15;10.18;;;;;;;18.40;61.82;95252.41;10511713;28;20033;-31
2022/09/29 13:14:45;;;;;;;16.48;10.48;;;;;;;18.47;61.82;95244.63;10501536;28;20632;-30
2022/09/29 13:20:14;;;;;;;19.67;10.85;;;;;;;18.49;61.99;95253.00;10507387;28;20119;-30
2022/09/29 13:25:18;;;;;;;17.00;8.77;;;;;;;18.48;61.67;95246.28;10505045;28;20044;-31
2022/09/29 13:30:27;;;;;;;14.15;9.70;;;;;;;18.45;61.64;95256.50;10504028;28;20460;-30
2022/09/29 13:35:27;;;;;;;15.50;9.43;;;;;;;18.43;61.75;95252.31;10504382;28;20416;-32
2022/09/29 13:40:30;;;;;;;15.77;9.57;;;;;;;18.48;61.95;95255.56;10504289;28;20439;-31
2022/09/29 13:45:33;;;;;;;15.70;9.85;;;;;;;18.39;61.91;95261.69;10506171;28;20485;-30
2022/09/29 13:50:43;;;;;;;17.13;8.98;;;;;;;18.41;61.90;95264.22;10498531;28;20523;-31
2022/09/29 13:56:02;;;;;;;15.07;9.15;;;;;;;18.39;61.93;95265.91;10508010;28;20442;-30
2022/09/29 14:01:09;;;;;;;10.95;9.15;;;;;;;18.39;61.85;95276.06;10503082;28;20051;-30
2022/09/29 14:06:22;;;;;;;12.07;8.88;;;;;;;18.36;61.78;95276.13;10500220;28;20119;-30
2022/09/29 14:11:48;;;;;;;15.57;9.00;;;;;;;18.42;61.95;95281.06;10504806;28;20032;-31
2022/09/29 14:16:48;;;;;;;15.52;10.23;;;;;;;18.44;62.32;95280.19;10507119;28;20042;-30
2022/09/29 14:21:53;;;;;;;13.85;8.00;;;;;;;18.49;62.11;95288.47;10517353;28;20094;-30
2022/09/29 14:27:16;;;;;;;11.80;8.00;;;;;;;18.48;61.88;95286.81;10499545;28;20031;-31
2022/09/29 14:32:21;;;;;;;12.70;7.28;;;;;;;18.45;61.88;95288.59;10505101;28;20032;-31
2022/09/29 14:37:23;;;;;;;16.70;8.80;;;;;;;18.49;61.61;95292.75;10503198;28;20036;-31
2022/09/29 14:42:24;;;;;;;17.83;9.25;;;;;;;18.49;61.58;95288.47;10507774;28;20042;-31
2022/09/29 14:53:13;;;;;;;15.38;8.57;;;;;;;18.54;61.71;95299.38;10531261;28;20281;-30
2022/09/29 14:58:33;;;;;;;16.33;8.95;;;;;;;18.45;62.19;95291.13;10509144;28;20032;-31
2022/09/29 15:03:42;;;;;;;14.75;8.38;;;;;;;18.52;62.01;95300.25;10510918;28;20032;-30
2022/09/29 15:08:53;;;;;;;18.75;9.02;;;;;;;18.53;61.88;95309.53;10532278;28;20495;-30
2022/09/29 15:13:55;;;;;;;15.23;8.25;;;;;;;18.58;61.70;95313.63;10514509;28;20437;-31
2022/09/29 15:19:01;;;;;;;15.82;7.03;;;;;;;18.58;61.12;95315.34;10503835;28;20023;-31
2022/09/29 15:24:26;;;;;;;9.88;6.25;;;;;;;18.49;60.74;95313.81;10515030;28;20032;-31
2022/09/29 15:29:27;;;;;;;14.15;6.35;;;;;;;18.53;61.30;95317.13;10519159;28;20040;-31
2022/09/29 15:34:27;;;;;;;16.27;8.60;;;;;;;18.54;61.39;95308.66;10510048;28;20028;-31
2022/09/29 15:39:30;;;;;;;12.40;7.32;;;;;;;18.54;61.17;95311.19;10508121;28;20039;-31
2022/09/29 15:44:32;;;;;;;14.90;7.07;;;;;;;18.48;61.42;95308.78;10501410;28;20066;-30
2022/09/29 15:49:38;;;;;;;12.20;6.93;;;;;;;18.53;61.48;95314.59;10507307;28;20476;-32
2022/09/29 15:54:43;;;;;;;11.33;6.60;;;;;;;18.59;61.00;95324.59;10507669;28;20024;-31
2022/09/29 15:59:50;;;;;;;14.00;6.85;;;;;;;18.58;61.10;95328.00;10509211;28;20479;-31
2022/09/29 16:04:53;;;;;;;;;;;;;;;18.46;61.50;95329.13;10500990;28;20387;-31
2022/09/29 16:09:59;;;;;;;10.25;7.13;;;;;;;18.50;61.27;95333.22;10509469;28;19999;-31
2022/09/29 16:15:00;;;;;;;;;;;;;;;18.50;61.39;95345.09;10501351;28;20759;-32
2022/09/29 16:20:01;;;;;;;11.77;6.47;;;;;;;18.54;61.76;95356.81;10504229;28;20003;-31
2022/09/29 16:25:21;;;;;;;11.02;6.00;;;;;;;18.53;61.64;95355.16;10507654;28;20562;-30
2022/09/29 16:30:27;;;;;;;12.15;5.85;;;;;;;18.51;61.66;95356.88;10508816;28;20043;-30
2022/09/29 16:35:47;;;;;;;13.77;6.28;;;;;;;18.53;61.56;95360.22;10517418;28;20509;-30
2022/09/29 16:40:48;;;;;;;11.88;6.72;;;;;;;18.50;61.95;95360.28;10502522;28;20595;-31
2022/09/29 16:45:55;;;;;;;12.52;6.07;;;;;;;18.46;62.52;95378.94;10508580;28;20308;-32
2022/09/29 16:51:00;;;;;;;9.73;5.40;;;;;;;18.44;61.56;95390.81;10498595;28;20039;-31
2022/09/29 16:56:08;;;;;;;12.00;6.25;;;;;;;18.44;62.13;95393.34;10501593;28;20040;-30
2022/09/29 17:01:10;;;;;;;12.15;6.88;;;;;;;18.41;62.55;95396.78;10506694;28;20036;-30
2022/09/29 17:06:11;;;;;;;10.57;6.05;;;;;;;18.45;62.37;95400.09;10498989;28;20736;-31
2022/09/29 17:11:11;;;;;;;8.40;5.73;;;;;;;18.47;62.37;95406.78;10517132;28;20032;-31
2022/09/29 17:16:19;;;;;;;17.23;5.77;;;;;;;18.50;63.02;95416.03;10512741;28;20672;-30
2022/09/29 17:21:20;;;;;;;11.88;5.70;;;;;;;18.52;62.58;95421.91;10504996;28;20058;-31
2022/09/29 17:31:54;;;;;;;11.90;5.20;;;;;;;18.43;62.41;95437.31;10500411;28;20134;-31
2022/09/29 17:37:00;;;;;;;13.27;5.73;;;;;;;18.40;62.60;95437.38;10504540;28;20020;-30
2022/09/29 17:42:00;;;;;;;;;;;;;;;18.38;62.53;95444.16;10505342;28;20082;-30
2022/09/29 17:47:01;;;;;;;16.58;5.60;;;;;;;18.37;62.64;95445.00;10502132;28;20284;-32
2022/09/29 17:52:01;;;;;;;11.32;5.65;;;;;;;18.37;62.39;95461.06;10507899;28;20613;-31
2022/09/29 17:57:02;;;;;;;10.37;5.00;;;;;;;18.36;62.46;95467.00;10511487;28;20036;-31
2022/09/29 18:02:03;;;;;;;10.77;5.55;;;;;;;18.35;62.48;95477.16;10506009;28;20478;-31
2022/09/29 18:07:03;;;;;;;13.98;5.20;;;;;;;18.36;62.46;95469.53;10500065;28;20039;-31
2022/09/29 18:12:03;;;;;;;13.03;5.47;;;;;;;18.29;62.58;95462.03;10502497;28;20561;-31
2022/09/29 18:17:04;;;;;;;10.27;4.43;;;;;;;18.45;62.31;95463.44;10497372;28;20462;-31
2022/09/29 18:22:06;;;;;;;10.50;5.13;;;;;;;18.47;62.16;95464.22;10505733;28;20036;-30
2022/09/29 18:27:13;;;;;;;11.40;5.55;;;;;;;18.64;61.21;95467.25;10502787;28;20111;-31
2022/09/29 18:32:17;;;;;;;12.25;4.85;;;;;;;18.55;61.97;95469.97;10497926;28;20033;-31
2022/09/29 18:37:18;;;;;;;11.00;5.28;;;;;;;18.54;61.44;95478.47;10499344;28;20515;-30
2022/09/29 18:42:18;;;;;;;9.83;5.60;;;;;;;18.49;61.95;95486.16;10504586;28;20043;-31
2022/09/29 18:47:18;;;;;;;9.13;4.30;;;;;;;18.51;62.01;95493.72;10509035;28;20123;-31
2022/09/29 18:52:19;;;;;;;6.73;4.07;;;;;;;18.50;62.09;95497.13;10498760;28;20032;-31
2022/09/29 18:57:20;;;;;;;7.88;4.22;;;;;;;18.49;62.28;95500.53;10496209;28;20350;-31
2022/09/29 19:02:21;;;;;;;9.23;3.90;;;;;;;18.50;62.25;95513.16;10494891;28;20060;-30
2022/09/29 19:07:22;;;;;;;10.07;4.55;;;;;;;18.48;62.01;95507.28;10493790;28;20070;-30
2022/09/29 19:12:26;;;;;;;8.73;4.22;;;;;;;18.48;62.17;95514.91;10494476;28;20028;-31
2022/09/29 19:17:26;;;;;;;5.95;4.40;;;;;;;18.53;62.18;95523.25;10495025;28;20630;-31
2022/09/29 19:22:30;;;;;;;10.07;4.20;;;;;;;18.54;62.17;95526.63;10499282;28;20024;-31
2022/09/29 19:27:31;;;;;;;7.65;3.90;;;;;;;18.50;62.25;95528.38;10499118;28;20033;-31
2022/09/29 19:32:32;;;;;;;6.82;3.78;;;;;;;18.50;62.10;95532.63;10505185;28;20036;-31
2022/09/29 19:37:33;;;;;;;6.10;4.30;;;;;;;18.50;62.03;95540.22;10503859;28;20037;-31
2022/09/29 19:42:33;;;;;;;5.35;3.45;;;;;;;18.49;61.96;95538.56;10499271;28;20024;-31
2022/09/29 19:47:34;;;;;;;8.07;4.00;;;;;;;18.49;61.99;95538.56;10500115;28;20715;-31
2022/09/29 19:52:35;;;;;;;6.97;4.90;;;;;;;18.43;62.16;95547.09;10507003;28;20274;-30
2022/09/29 19:57:39;;;;;;;7.93;3.90;;;;;;;18.41;62.42;95548.00;10512247;28;20032;-31
2022/09/29 20:02:43;;;;;;;6.03;3.65;;;;;;;18.43;62.16;95553.88;10507991;28;20032;-30
2022/09/29 20:07:43;;;;;;;6.15;3.33;;;;;;;18.44;62.29;95558.91;10503419;28;20048;-31
2022/09/29 20:12:45;;;;;;;8.57;3.88;;;;;;;18.36;62.71;95563.28;10508097;28;20036;-31
2022/09/29 20:17:45;;;;;;;5.97;3.95;;;;;;;18.44;62.90;95563.13;10500433;28;20024;-30
2022/09/29 20:22:46;;;;;;;6.43;4.03;;;;;;;18.46;62.80;95571.53;10509109;28;20028;-32
2022/09/29 20:27:50;;;;;;;8.23;4.00;;;;;;;18.43;62.17;95557.22;10504000;28;20028;-31
2022/09/29 20:32:50;;;;;;;9.05;3.60;;;;;;;18.41;62.34;95570.81;10500868;28;20043;-31
2022/09/29 20:37:50;;;;;;;5.32;3.25;;;;;;;18.36;62.41;95570.03;10516323;28;20039;-31
2022/09/29 20:42:51;;;;;;;4.90;2.53;;;;;;;18.34;62.58;95576.84;10500107;28;20039;-29
2022/09/29 20:47:52;;;;;;;4.53;3.60;;;;;;;18.35;62.43;95575.97;10515470;28;20085;-30
2022/09/29 20:52:53;;;;;;;4.90;3.50;;;;;;;18.30;62.80;95582.81;10509663;28;20028;-30
2022/09/29 20:57:56;;;;;;;7.13;3.67;;;;;;;18.33;62.61;95595.44;10509106;28;20522;-29
2022/09/29 21:02:57;;;;;;;5.60;3.40;;;;;;;18.31;62.80;95594.59;10509914;28;20298;-30
2022/09/29 21:07:57;;;;;;;11.03;4.00;;;;;;;18.31;62.44;95609.81;10530372;28;20380;-29
2022/09/29 21:12:57;;;;;;;4.13;3.10;;;;;;;18.27;62.79;95616.63;10514836;28;20298;-29
2022/09/29 21:17:58;;;;;;;7.47;3.03;;;;;;;18.33;62.88;95616.53;10509041;28;20032;-29
2022/09/29 21:22:58;;;;;;;6.03;3.20;;;;;;;18.38;63.07;95624.06;10526403;28;20040;-29
2022/09/29 21:27:59;;;;;;;3.73;2.60;;;;;;;18.34;63.08;95617.38;10508080;28;20040;-29
2022/09/29 21:32:59;;;;;;;6.93;3.35;;;;;;;18.35;62.82;95629.19;10524520;28;20427;-29
2022/09/29 21:38:00;;;;;;;6.23;3.23;;;;;;;18.32;62.71;95635.13;10521452;28;20036;-29
2022/09/29 21:43:00;;;;;;;7.03;3.43;;;;;;;18.29;63.01;95641.91;10527133;28;20039;-29
2022/09/29 21:48:06;;;;;;;7.10;3.03;;;;;;;18.28;62.58;95647.84;10538406;28;20036;-29
2022/09/29 21:53:07;;;;;;;6.10;4.00;;;;;;;18.29;63.00;95652.03;10525711;28;20702;-29
2022/09/29 21:58:07;;;;;;;5.90;3.20;;;;;;;18.30;62.76;95658.81;10515106;28;20032;-29
2022/09/29 22:03:07;;;;;;;7.97;3.57;;;;;;;18.19;62.92;95650.53;10508915;28;20165;-30
2022/09/29 22:08:08;;;;;;;5.70;2.90;;;;;;;18.27;63.09;95661.38;10511184;28;20032;-28
2022/09/29 22:13:08;;;;;;;5.30;2.70;;;;;;;18.29;63.05;95659.63;10527215;28;20104;-28
2022/09/29 22:18:09;;;;;;;4.43;3.20;;;;;;;18.33;62.75;95651.19;10507297;28;20033;-30
2022/09/29 22:23:09;;;;;;;4.15;3.00;;;;;;;18.44;62.52;95661.97;10537886;28;20047;-29
2022/09/29 22:28:11;;;;;;;5.03;3.10;;;;;;;18.48;62.39;95677.09;10532517;28;20035;-31
2022/09/29 22:33:13;;;;;;;3.65;2.50;;;;;;;18.48;62.38;95681.31;10529570;28;20274;-29
2022/09/29 22:38:13;;;;;;;6.05;2.80;;;;;;;18.35;62.59;95657.88;10512898;28;20032;-29
2022/09/29 22:43:14;;;;;;;3.97;2.50;;;;;;;18.40;62.46;95673.03;10503694;28;20028;-30
2022/09/29 22:48:15;;;;;;;7.45;3.20;;;;;;;18.38;62.55;95673.03;10512663;28;20500;-29
2022/09/29 22:53:16;;;;;;;4.90;2.53;;;;;;;18.39;62.91;95676.41;10508150;28;20042;-29
2022/09/29 22:58:16;;;;;;;5.27;2.77;;;;;;;18.38;62.77;95675.56;10511962;28;20038;-30
2022/09/29 23:03:17;;;;;;;4.50;2.50;;;;;;;18.35;62.76;95675.59;10514321;28;20289;-29
2022/09/29 23:08:17;;;;;;;4.43;2.50;;;;;;;18.39;62.83;95668.78;10521312;28;20027;-29
2022/09/29 23:13:20;;;;;;;5.97;2.50;;;;;;;18.37;63.04;95678.13;10519577;28;20036;-29
2022/09/29 23:18:20;;;;;;;4.55;2.42;;;;;;;18.35;63.44;95680.69;10514604;28;20105;-29
2022/09/29 23:23:20;;;;;;;6.53;2.57;;;;;;;18.46;62.79;95688.13;10515857;28;20503;-29
2022/09/29 23:28:21;;;;;;;3.57;2.80;;;;;;;18.53;62.42;95684.63;10511492;28;20289;-29
2022/09/29 23:33:21;;;;;;;4.38;2.40;;;;;;;18.50;62.18;95685.50;10520494;28;20786;-29
2022/09/29 23:43:41;;;;;;;2.20;1.80;;;;;;;18.44;62.33;95690.69;10531273;28;20290;-29
2022/09/29 23:48:41;;;;;;;5.38;2.35;;;;;;;18.43;62.79;95691.53;10517272;28;20427;-29
2022/09/29 23:53:41;;;;;;;2.97;2.27;;;;;;;18.43;62.53;95693.25;10522033;28;20395;-29